Time;durP1;ratioP1;P1;durP2;ratioP2;P2;SDS_P1;SDS_P2;PMS_P1;PMS_P2;Temp;Humidity;BMP_temperature;BMP_pressure;BME280_temperature;BME280_humidity;BME280_pressure;Samples;Min_cycle;Max_cycle;Signal;HPM_P1;HPM_P2
2023/09/03 00:01:44;;;;;;;3.83;2.60;;;;;;;20.98;100.00;99218.25;4990846;28;20035;-92
2023/09/03 00:04:10;;;;;;;6.82;2.95;;;;;;;20.81;100.00;99210.31;4977965;28;20111;-92
2023/09/03 00:06:37;;;;;;;6.57;3.42;;;;;;;20.58;100.00;99206.31;4977364;28;20035;-92
2023/09/03 00:09:04;;;;;;;5.70;3.25;;;;;;;20.62;100.00;99210.59;4974540;28;20401;-93
2023/09/03 00:11:31;;;;;;;4.82;3.05;;;;;;;20.49;100.00;99202.31;4976738;28;20065;-91
2023/09/03 00:13:57;;;;;;;6.82;3.42;;;;;;;20.52;100.00;99226.47;4978653;28;20042;-91
2023/09/03 00:16:23;;;;;;;5.63;3.25;;;;;;;20.62;100.00;99211.44;4976383;28;20042;-93
2023/09/03 00:18:50;;;;;;;4.07;2.58;;;;;;;20.82;100.00;99225.56;4979573;28;20133;-93
2023/09/03 00:21:16;;;;;;;7.43;3.20;;;;;;;20.61;100.00;99204.31;4975915;28;20038;-93
2023/09/03 00:23:43;;;;;;;6.43;2.72;;;;;;;20.71;100.00;99219.00;4980013;28;20105;-92
2023/09/03 00:26:17;;;;;;;5.45;2.53;;;;;;;21.01;100.00;99238.81;4979903;28;20042;-93
2023/09/03 00:28:42;;;;;;;5.82;2.85;;;;;;;21.10;100.00;99230.13;4979727;28;20050;-92
2023/09/03 00:31:09;;;;;;;5.30;3.00;;;;;;;20.99;100.00;99222.72;4982829;28;20039;-92
2023/09/03 00:33:35;;;;;;;5.65;2.80;;;;;;;21.16;100.00;99234.28;4976813;28;20062;-92
2023/09/03 00:36:03;;;;;;;5.28;3.10;;;;;;;20.96;100.00;99217.47;4980186;28;20050;-93
2023/09/03 00:38:29;;;;;;;4.40;2.63;;;;;;;20.78;100.00;99175.38;4998563;28;20034;-92
2023/09/03 00:40:57;;;;;;;4.55;2.60;;;;;;;21.11;100.00;99221.91;4988540;28;20540;-91
2023/09/03 00:43:23;;;;;;;6.68;2.60;;;;;;;21.19;100.00;99220.53;4988695;28;20035;-92
2023/09/03 00:45:50;;;;;;;3.90;2.65;;;;;;;21.00;100.00;99221.72;4981452;28;20507;-92
2023/09/03 00:48:18;;;;;;;4.35;2.38;;;;;;;20.79;100.00;99198.75;4981319;28;20400;-92
2023/09/03 00:50:46;;;;;;;5.63;2.70;;;;;;;20.56;100.00;99179.38;4981280;28;20042;-93
2023/09/03 00:53:13;;;;;;;4.28;2.75;;;;;;;20.72;100.00;99211.75;4994424;28;20077;-92
2023/09/03 00:55:39;;;;;;;7.32;3.60;;;;;;;20.87;100.00;99242.38;4981415;28;20389;-92
2023/09/03 00:58:08;;;;;;;6.40;3.20;;;;;;;20.52;100.00;99204.84;4981328;28;20022;-92
2023/09/03 01:00:35;;;;;;;4.95;3.25;;;;;;;20.58;100.00;99226.13;4974677;28;20038;-93
2023/09/03 01:03:02;;;;;;;5.85;2.78;;;;;;;20.21;100.00;99197.72;4983344;28;20042;-92
2023/09/03 01:05:28;;;;;;;4.43;2.50;;;;;;;20.42;100.00;99233.38;4974569;28;20057;-93
2023/09/03 01:07:57;;;;;;;5.38;2.78;;;;;;;20.28;100.00;99212.63;4991345;28;20096;-93
2023/09/03 01:10:29;;;;;;;5.50;3.40;;;;;;;20.34;100.00;99230.25;4975002;28;20081;-93
2023/09/03 01:13:02;;;;;;;4.30;3.00;;;;;;;20.07;100.00;99226.41;4994609;28;20069;-93
2023/09/03 01:15:35;;;;;;;6.35;2.92;;;;;;;19.89;100.00;99216.72;4976096;28;20042;-91
2023/09/03 01:18:08;;;;;;;5.63;3.38;;;;;;;19.67;100.00;99214.34;4993230;28;20055;-92
2023/09/03 01:20:38;;;;;;;5.07;2.67;;;;;;;19.43;100.00;99189.59;4978586;28;20063;-91
2023/09/03 01:23:23;;;;;;;8.85;3.58;;;;;;;19.38;100.00;99184.47;4977209;28;20133;-93
2023/09/03 01:26:08;;;;;;;4.47;2.83;;;;;;;19.78;100.00;99213.72;4978160;28;20497;-93
2023/09/03 01:28:38;;;;;;;7.03;2.90;;;;;;;19.71;100.00;99183.53;4976329;28;20046;-93
2023/09/03 01:31:07;;;;;;;7.40;3.22;;;;;;;19.68;100.00;99183.69;4977501;28;20138;-90
2023/09/03 01:33:37;;;;;;;5.32;3.22;;;;;;;19.85;100.00;99202.50;4978409;28;20073;-92
2023/09/03 01:36:06;;;;;;;;;;;;;;;20.11;100.00;99225.28;4981289;28;20133;-92
2023/09/03 01:38:32;;;;;;;5.03;2.63;;;;;;;20.05;100.00;99206.72;5013611;28;20269;-92
2023/09/03 01:40:59;;;;;;;7.38;3.03;;;;;;;19.83;100.00;99188.22;4986239;28;20050;-93
2023/09/03 01:43:25;;;;;;;9.18;3.15;;;;;;;19.42;100.00;99177.09;4981927;28;20452;-92
2023/09/03 01:45:57;;;;;;;6.30;3.40;;;;;;;19.80;100.00;99237.00;4981993;28;20092;-91
2023/09/03 01:48:33;;;;;;;8.63;2.65;;;;;;;19.76;100.00;99203.06;4977291;28;20043;-93
2023/09/03 01:51:09;;;;;;;7.45;3.03;;;;;;;19.73;100.00;99188.84;4998651;28;20149;-92
2023/09/03 01:53:42;;;;;;;5.57;3.80;;;;;;;19.92;100.00;99203.00;4979552;28;20156;-93
2023/09/03 01:56:11;;;;;;;5.95;3.20;;;;;;;19.93;100.00;99230.88;4981059;28;20536;-92
2023/09/03 01:58:40;;;;;;;5.20;2.97;;;;;;;19.94;100.00;99230.78;4988477;28;20046;-92
2023/09/03 02:01:09;;;;;;;4.57;2.90;;;;;;;19.95;100.00;99220.84;4977429;28;20113;-92
2023/09/03 02:03:36;;;;;;;6.90;3.45;;;;;;;19.76;100.00;99215.69;4997938;28;20559;-93
2023/09/03 02:06:05;;;;;;;5.95;3.20;;;;;;;19.55;100.00;99167.34;4983294;28;20034;-93
2023/09/03 02:08:31;;;;;;;8.10;3.20;;;;;;;19.73;100.00;99197.81;4982719;28;20133;-92
2023/09/03 02:10:57;;;;;;;8.00;3.17;;;;;;;19.62;100.00;99205.63;4985787;28;20137;-93
2023/09/03 02:13:22;;;;;;;5.93;2.72;;;;;;;19.43;100.00;99170.72;4987674;28;20058;-92
2023/09/03 02:15:48;;;;;;;5.63;3.25;;;;;;;19.50;100.00;99199.97;4979545;28;20105;-92
2023/09/03 02:18:16;;;;;;;6.38;2.85;;;;;;;19.36;100.00;99207.97;4988364;28;20078;-93
2023/09/03 02:20:42;;;;;;;4.85;2.92;;;;;;;19.24;100.00;99223.03;4999955;28;20046;-92
2023/09/03 02:23:08;;;;;;;6.95;3.45;;;;;;;19.18;100.00;99203.63;4996148;28;20039;-93
2023/09/03 02:25:34;;;;;;;4.80;3.00;;;;;;;19.33;100.00;99220.78;4983561;28;20396;-92
2023/09/03 02:28:00;;;;;;;4.88;3.13;;;;;;;19.16;100.00;99224.41;4982943;28;20149;-94
2023/09/03 02:30:26;;;;;;;5.45;3.03;;;;;;;19.12;100.00;99203.94;4982083;28;20048;-94
2023/09/03 02:32:51;;;;;;;4.50;3.13;;;;;;;19.07;100.00;99226.63;4980191;28;20035;-92
2023/09/03 02:35:19;;;;;;;8.10;4.57;;;;;;;19.12;100.00;99223.69;4978702;28;20061;-93
2023/09/03 02:37:44;;;;;;;4.82;3.10;;;;;;;18.85;100.00;99186.50;4983637;28;20497;-93
2023/09/03 02:40:10;;;;;;;5.78;3.17;;;;;;;19.09;100.00;99218.47;4979681;28;20055;-93
2023/09/03 02:42:36;;;;;;;8.52;3.45;;;;;;;19.11;100.00;99231.88;4985237;28;20038;-92
2023/09/03 02:45:04;;;;;;;5.50;2.70;;;;;;;19.13;100.00;99220.06;4978655;28;20069;-92
2023/09/03 02:47:29;;;;;;;8.10;3.20;;;;;;;19.07;100.00;99233.84;4978047;28;20093;-93
2023/09/03 02:49:55;;;;;;;8.02;3.13;;;;;;;18.86;100.00;99200.84;4984116;28;20432;-92
2023/09/03 02:52:22;;;;;;;5.07;3.05;;;;;;;18.97;100.00;99198.44;4997149;28;20058;-92
2023/09/03 02:54:48;;;;;;;5.40;3.40;;;;;;;19.02;100.00;99235.94;4998249;28;20042;-93
2023/09/03 02:57:14;;;;;;;6.45;2.72;;;;;;;18.96;100.00;99223.66;4981182;28;20541;-93
2023/09/03 02:59:42;;;;;;;5.28;2.80;;;;;;;19.12;100.00;99244.38;4979413;28;20035;-93
2023/09/03 03:02:08;;;;;;;5.20;2.92;;;;;;;18.83;100.00;99184.88;4974169;28;20050;-92
2023/09/03 03:04:33;;;;;;;4.55;2.90;;;;;;;18.98;100.00;99199.34;4986351;28;20547;-92
2023/09/03 03:06:59;;;;;;;7.32;2.88;;;;;;;19.00;100.00;99216.28;4979473;28;20043;-93
2023/09/03 03:09:27;;;;;;;5.85;2.92;;;;;;;18.90;100.00;99196.19;4976515;28;20043;-92
2023/09/03 03:11:52;;;;;;;6.00;3.40;;;;;;;19.07;100.00;99237.41;4977710;28;20031;-92
2023/09/03 03:14:18;;;;;;;6.38;3.60;;;;;;;19.23;100.00;99231.19;4983968;28;20493;-93
2023/09/03 03:16:44;;;;;;;5.82;3.33;;;;;;;18.91;100.00;99204.19;4980545;28;20041;-93
2023/09/03 03:19:10;;;;;;;4.40;3.13;;;;;;;18.96;100.00;99238.97;4980439;28;20046;-93
2023/09/03 03:21:36;;;;;;;4.35;2.97;;;;;;;18.90;100.00;99217.72;4997814;28;20084;-92
2023/09/03 03:24:04;;;;;;;5.38;3.10;;;;;;;18.77;100.00;99212.09;4979353;28;20046;-91
2023/09/03 03:26:32;;;;;;;7.28;3.00;;;;;;;18.66;100.00;99189.28;4995532;28;20094;-92
2023/09/03 03:28:58;;;;;;;5.90;2.95;;;;;;;18.54;100.00;99172.91;4979717;28;20128;-92
2023/09/03 03:31:24;;;;;;;5.05;3.55;;;;;;;18.74;100.00;99236.53;4992678;28;20103;-92
2023/09/03 03:33:51;;;;;;;5.85;3.00;;;;;;;18.66;100.00;99189.28;4996391;28;20523;-92
2023/09/03 03:36:19;;;;;;;4.80;2.60;;;;;;;18.89;100.00;99233.03;4978931;28;20043;-92
2023/09/03 03:38:45;;;;;;;6.68;2.97;;;;;;;18.81;100.00;99219.09;4995408;28;20067;-92
2023/09/03 03:41:12;;;;;;;7.63;3.08;;;;;;;18.79;100.00;99197.63;4979787;28;20133;-93
2023/09/03 03:43:41;;;;;;;6.10;2.97;;;;;;;18.74;100.00;99206.88;4981518;28;20132;-93
2023/09/03 03:46:07;;;;;;;6.82;3.22;;;;;;;18.76;100.00;99235.47;4976702;28;20106;-93
2023/09/03 03:48:33;;;;;;;8.48;3.00;;;;;;;18.67;100.00;99223.38;4988140;28;20100;-92
2023/09/03 03:51:00;;;;;;;6.90;3.47;;;;;;;18.92;100.00;99229.31;4978198;28;20038;-93
2023/09/03 03:53:26;;;;;;;9.07;3.35;;;;;;;18.83;100.00;99239.63;4975883;28;20042;-92
2023/09/03 03:55:59;;;;;;;5.63;3.30;;;;;;;18.77;100.00;99250.69;4975660;28;20039;-92
2023/09/03 03:58:25;;;;;;;5.60;3.35;;;;;;;18.58;100.00;99236.44;4973985;28;20482;-93
2023/09/03 04:00:52;;;;;;;5.63;3.40;;;;;;;18.33;100.00;99210.81;4983596;28;20042;-92
2023/09/03 04:03:18;;;;;;;6.88;3.45;;;;;;;18.23;100.00;99196.06;4982311;28;20050;-93
2023/09/03 04:05:44;;;;;;;5.50;3.33;;;;;;;18.24;100.00;99198.69;4980293;28;20451;-93
2023/09/03 04:08:10;;;;;;;7.20;3.47;;;;;;;18.11;100.00;99177.84;4977863;28;20129;-93
2023/09/03 04:10:36;;;;;;;8.00;3.70;;;;;;;18.36;100.00;99223.22;4985665;28;20146;-93
2023/09/03 04:13:01;;;;;;;5.30;3.60;;;;;;;18.49;100.00;99267.41;4984495;28;20046;-92
2023/09/03 04:15:27;;;;;;;7.80;3.67;;;;;;;18.47;100.00;99253.16;5012324;28;20273;-93
2023/09/03 04:17:54;;;;;;;5.95;2.90;;;;;;;18.56;100.00;99257.19;4987831;28;20046;-92
2023/09/03 04:20:20;;;;;;;3.72;3.13;;;;;;;18.23;100.00;99209.53;4978130;28;20408;-93
2023/09/03 04:22:46;;;;;;;7.03;3.75;;;;;;;18.56;100.00;99268.84;4978884;28;20045;-94
2023/09/03 04:25:12;;;;;;;6.55;2.95;;;;;;;18.38;100.00;99253.63;4979236;28;20145;-91
2023/09/03 04:27:38;;;;;;;6.30;3.05;;;;;;;18.32;100.00;99221.63;4977158;28;20452;-91
2023/09/03 04:30:04;;;;;;;7.18;3.38;;;;;;;18.56;100.00;99276.03;4986622;28;20049;-92
2023/09/03 04:32:30;;;;;;;5.13;3.17;;;;;;;18.41;100.00;99264.25;4995326;28;20035;-92
2023/09/03 04:34:57;;;;;;;7.05;3.25;;;;;;;18.25;100.00;99250.69;4983683;28;20129;-92
2023/09/03 04:37:23;;;;;;;5.55;2.90;;;;;;;18.29;100.00;99275.66;4993833;28;20055;-93
2023/09/03 04:39:49;;;;;;;6.70;3.13;;;;;;;18.33;100.00;99261.97;4977127;28;20039;-92
2023/09/03 04:42:15;;;;;;;5.53;3.63;;;;;;;18.52;100.00;99288.81;4982778;28;20050;-92
2023/09/03 04:44:42;;;;;;;8.40;4.10;;;;;;;18.42;100.00;99285.72;4979065;28;20038;-92
2023/09/03 04:47:08;;;;;;;6.13;2.72;;;;;;;18.24;100.00;99274.06;4980512;28;20054;-93
2023/09/03 04:49:34;;;;;;;4.50;3.70;;;;;;;18.33;100.00;99278.13;4976167;28;20038;-93
2023/09/03 04:52:01;;;;;;;6.57;3.70;;;;;;;18.55;100.00;99299.44;4977720;28;20070;-92
2023/09/03 04:54:27;;;;;;;7.63;3.72;;;;;;;18.44;100.00;99291.03;4978084;28;20074;-93
2023/09/03 04:56:53;;;;;;;8.27;4.35;;;;;;;18.32;100.00;99279.03;4977857;28;20437;-91
2023/09/03 04:59:19;;;;;;;7.63;3.72;;;;;;;18.35;100.00;99269.97;4993333;28;20072;-94
2023/09/03 05:01:45;;;;;;;7.63;3.90;;;;;;;18.51;100.00;99281.69;4979773;28;20046;-92
2023/09/03 05:04:10;;;;;;;8.10;3.13;;;;;;;18.42;100.00;99274.94;4991605;28;20034;-92
2023/09/03 05:06:36;;;;;;;9.15;3.88;;;;;;;18.53;100.00;99295.94;4979875;28;20392;-93
2023/09/03 05:09:04;;;;;;;5.60;3.83;;;;;;;18.43;100.00;99259.66;4988913;28;20074;-92
2023/09/03 05:11:29;;;;;;;5.28;3.58;;;;;;;18.68;100.00;99297.84;4997539;28;20065;-91
2023/09/03 05:13:55;;;;;;;6.13;3.83;;;;;;;18.39;100.00;99249.97;4979841;28;20110;-92
2023/09/03 05:16:23;;;;;;;7.25;4.18;;;;;;;18.48;100.00;99261.16;4981960;28;20049;-92
2023/09/03 05:18:49;;;;;;;8.57;5.35;;;;;;;18.65;100.00;99267.47;4982674;28;20078;-93
2023/09/03 05:21:14;;;;;;;8.00;4.85;;;;;;;18.81;100.00;99281.94;4983361;28;20509;-93
2023/09/03 05:23:40;;;;;;;6.78;4.25;;;;;;;18.84;100.00;99292.53;4986488;28;20034;-93
2023/09/03 05:26:08;;;;;;;6.05;3.75;;;;;;;18.96;100.00;99274.00;4982851;28;20038;-92
2023/09/03 05:28:33;;;;;;;7.88;3.97;;;;;;;19.01;100.00;99321.31;4977687;28;20035;-93
2023/09/03 05:31:00;;;;;;;6.70;3.60;;;;;;;18.93;100.00;99288.50;4996642;28;20049;-92
2023/09/03 05:33:26;;;;;;;7.45;3.95;;;;;;;19.03;100.00;99288.88;4980544;28;20497;-93
2023/09/03 05:35:51;;;;;;;7.30;3.30;;;;;;;18.90;100.00;99244.69;4981125;28;20039;-91
2023/09/03 05:38:17;;;;;;;7.70;3.88;;;;;;;19.33;100.00;99297.16;4978392;28;20047;-94
2023/09/03 05:40:43;;;;;;;6.47;3.50;;;;;;;19.65;100.00;99318.78;4981890;28;20070;-92
2023/09/03 05:43:10;;;;;;;6.82;3.42;;;;;;;19.67;100.00;99279.97;4981991;28;20097;-93
2023/09/03 05:45:44;;;;;;;6.95;4.20;;;;;;;20.02;100.00;99311.34;4980718;28;20405;-93
2023/09/03 05:48:09;;;;;;;7.13;4.38;;;;;;;19.89;100.00;99257.19;4978305;28;20065;-94
2023/09/03 05:50:35;;;;;;;5.65;3.42;;;;;;;20.22;100.00;99286.75;4980054;28;20568;-93
2023/09/03 05:53:01;;;;;;;5.28;3.33;;;;;;;20.22;100.00;99269.69;4989711;28;20127;-92
2023/09/03 05:55:27;;;;;;;5.45;3.30;;;;;;;20.46;100.00;99283.56;4982275;28;20057;-92
2023/09/03 05:57:53;;;;;;;6.03;3.13;;;;;;;20.51;100.00;99281.44;4998763;28;20039;-94
2023/09/03 06:00:20;;;;;;;6.78;3.85;;;;;;;20.44;100.00;99240.44;4981519;28;20035;-93
2023/09/03 06:02:48;;;;;;;5.50;3.28;;;;;;;20.75;100.00;99284.53;4995772;28;20038;-94
2023/09/03 06:05:14;;;;;;;5.82;3.25;;;;;;;20.90;100.00;99285.44;4979129;28;20143;-93
2023/09/03 06:07:40;;;;;;;4.75;3.00;;;;;;;20.70;100.00;99259.63;4993516;28;20137;-93
2023/09/03 06:10:07;;;;;;;4.80;2.97;;;;;;;20.95;100.00;99288.75;4982393;28;20133;-94
2023/09/03 06:12:33;;;;;;;4.88;3.22;;;;;;;20.51;100.00;99297.66;4976895;28;20041;-92
2023/09/03 06:14:58;;;;;;;8.13;3.95;;;;;;;20.41;100.00;99315.41;5001641;28;20031;-92
2023/09/03 06:17:26;;;;;;;5.93;3.63;;;;;;;20.41;100.00;99299.19;4979827;28;20082;-93
2023/09/03 06:19:51;;;;;;;5.70;3.58;;;;;;;20.38;100.00;99321.81;4985528;28;20057;-92
2023/09/03 06:22:17;;;;;;;4.90;3.38;;;;;;;20.65;100.00;99322.06;5001622;28;20137;-91
2023/09/03 06:24:43;;;;;;;5.97;3.25;;;;;;;20.51;100.00;99267.94;4981278;28;20042;-94
2023/09/03 06:27:09;;;;;;;5.63;4.55;;;;;;;20.68;100.00;99311.06;4988895;28;20034;-92
2023/09/03 06:29:35;;;;;;;5.25;3.47;;;;;;;20.70;100.00;99303.72;4978807;28;20045;-93
2023/09/03 06:32:01;;;;;;;5.13;3.25;;;;;;;21.16;100.00;99331.63;4980491;28;20046;-94
2023/09/03 06:34:28;;;;;;;6.82;3.60;;;;;;;21.06;100.00;99309.72;4983388;28;20393;-92
2023/09/03 06:36:54;;;;;;;6.47;4.35;;;;;;;21.26;100.00;99300.38;5000289;28;20500;-93
2023/09/03 06:39:20;;;;;;;6.28;3.90;;;;;;;21.39;100.00;99312.16;4977958;28;20571;-92
2023/09/03 06:41:46;;;;;;;6.40;4.03;;;;;;;21.40;100.00;99281.41;4987567;28;20138;-93
2023/09/03 06:44:12;;;;;;;6.00;3.72;;;;;;;21.79;100.00;99306.91;4979348;28;20047;-93
2023/09/03 06:46:38;;;;;;;8.02;3.58;;;;;;;21.76;100.00;99322.50;4980665;28;20134;-92
2023/09/03 06:49:04;;;;;;;9.45;3.53;;;;;;;21.94;100.00;99324.00;4980313;28;20073;-94
2023/09/03 06:51:31;;;;;;;4.10;2.97;;;;;;;22.29;100.00;99347.94;4981096;28;20054;-93
2023/09/03 06:53:59;;;;;;;7.45;3.47;;;;;;;21.99;100.00;99332.72;4993855;28;20046;-93
2023/09/03 06:56:24;;;;;;;5.95;3.38;;;;;;;21.98;100.00;99343.66;4980054;28;20042;-93
2023/09/03 06:58:50;;;;;;;5.53;3.65;;;;;;;22.09;100.00;99319.44;4978909;28;20070;-93
2023/09/03 07:01:17;;;;;;;7.60;3.50;;;;;;;22.17;100.00;99321.66;4983492;28;20398;-93
2023/09/03 07:03:43;;;;;;;5.95;3.45;;;;;;;22.41;100.00;99321.88;4986039;28;20101;-93
2023/09/03 07:06:08;;;;;;;5.57;3.38;;;;;;;22.86;100.00;99334.16;4984062;28;20050;-93
2023/09/03 07:08:36;;;;;;;11.30;3.78;;;;;;;23.23;100.00;99339.75;4988987;28;20041;-93
2023/09/03 07:11:02;;;;;;;5.68;3.45;;;;;;;22.70;100.00;99355.16;4979833;28;20089;-93
2023/09/03 07:13:27;;;;;;;8.65;3.65;;;;;;;22.85;100.00;99335.13;4980717;28;20504;-92
2023/09/03 07:15:53;;;;;;;7.93;3.60;;;;;;;22.56;100.00;99329.84;4980638;28;20129;-93
2023/09/03 07:18:19;;;;;;;5.40;3.35;;;;;;;22.96;100.00;99323.53;4977048;28;20082;-94
2023/09/03 07:20:45;;;;;;;9.60;3.33;;;;;;;22.86;100.00;99325.16;4998880;28;20579;-93
2023/09/03 07:23:11;;;;;;;8.57;3.67;;;;;;;22.42;100.00;99318.19;4999810;28;20042;-93
2023/09/03 07:25:38;;;;;;;6.30;3.72;;;;;;;22.84;100.00;99329.81;4980808;28;20567;-92
2023/09/03 07:28:04;;;;;;;6.68;3.58;;;;;;;22.87;100.00;99360.28;4977630;28;20039;-95
2023/09/03 07:30:30;;;;;;;5.00;3.15;;;;;;;23.41;100.00;99358.44;4983119;28;20069;-94
2023/09/03 07:32:56;;;;;;;7.43;3.25;;;;;;;23.46;100.00;99364.41;4977915;28;20047;-93
2023/09/03 07:35:22;;;;;;;6.40;3.78;;;;;;;23.37;100.00;99352.34;4991081;28;20034;-94
2023/09/03 07:37:48;;;;;;;6.05;3.00;;;;;;;23.93;100.00;99373.75;4978945;28;20125;-96
2023/09/03 07:40:14;;;;;;;5.68;3.38;;;;;;;24.11;100.00;99361.50;4982025;28;20043;-94
2023/09/03 07:42:42;;;;;;;6.57;3.30;;;;;;;24.34;100.00;99339.94;4974299;28;20089;-93
2023/09/03 07:45:09;;;;;;;5.07;3.25;;;;;;;24.70;100.00;99344.47;4979991;28;20139;-94
2023/09/03 07:47:35;;;;;;;5.70;3.17;;;;;;;24.80;100.00;99325.56;4978556;28;20531;-93
2023/09/03 07:50:04;;;;;;;5.97;3.13;;;;;;;24.96;100.00;99347.00;4993272;28;20043;-94
2023/09/03 07:52:30;;;;;;;5.85;3.00;;;;;;;24.93;100.00;99345.41;4978161;28;20047;-95
2023/09/03 07:54:56;;;;;;;7.28;3.50;;;;;;;25.26;100.00;99334.75;4979025;28;20408;-95
2023/09/03 07:57:22;;;;;;;4.20;3.22;;;;;;;25.32;100.00;99347.91;4985327;28;20042;-95
2023/09/03 07:59:51;;;;;;;6.50;3.22;;;;;;;25.39;100.00;99355.47;4976413;28;20041;-94
2023/09/03 08:02:17;;;;;;;4.40;2.75;;;;;;;25.22;100.00;99325.97;4977121;28;20543;-94
2023/09/03 08:04:43;;;;;;;6.55;3.20;;;;;;;25.12;100.00;99314.91;4986881;28;20034;-93
2023/09/03 08:07:10;;;;;;;7.55;2.95;;;;;;;25.23;100.00;99302.34;4979309;28;20038;-96
2023/09/03 08:09:36;;;;;;;6.93;3.10;;;;;;;24.87;100.00;99290.59;4982610;28;20055;-93
2023/09/03 08:12:01;;;;;;;5.72;3.30;;;;;;;25.50;100.00;99342.84;4987412;28;20065;-92
2023/09/03 08:14:27;;;;;;;5.15;2.92;;;;;;;25.34;100.00;99305.94;4982866;28;20077;-94
2023/09/03 08:16:54;;;;;;;9.30;3.15;;;;;;;25.66;100.00;99317.97;4990722;28;20042;-95
2023/09/03 08:19:20;;;;;;;7.15;3.30;;;;;;;26.15;100.00;99311.25;4982760;28;20057;-94
2023/09/03 08:21:47;;;;;;;7.30;3.30;;;;;;;26.26;98.81;99319.38;4980552;28;20043;-94
2023/09/03 08:24:13;;;;;;;5.43;3.00;;;;;;;26.43;97.44;99327.03;4991966;28;20093;-93
2023/09/03 08:26:39;;;;;;;4.63;2.95;;;;;;;26.28;97.71;99267.47;4978644;28;20069;-95
2023/09/03 08:29:05;;;;;;;4.38;2.45;;;;;;;26.81;96.24;99309.31;4977880;28;20042;-94
2023/09/03 08:31:30;;;;;;;4.72;2.78;;;;;;;26.92;94.72;99296.59;4997180;28;20457;-94
2023/09/03 08:33:58;;;;;;;5.53;2.80;;;;;;;27.07;91.43;99281.63;4975240;28;20039;-94
2023/09/03 08:36:24;;;;;;;4.63;2.63;;;;;;;27.45;90.58;99313.78;4993114;28;20374;-94
2023/09/03 08:38:50;;;;;;;4.68;2.72;;;;;;;27.86;89.69;99325.63;4982773;28;20035;-94
2023/09/03 08:41:18;;;;;;;4.25;2.80;;;;;;;27.65;89.92;99317.47;4985724;28;20046;-93
2023/09/03 08:43:49;;;;;;;6.30;3.10;;;;;;;27.82;87.97;99285.00;4977742;28;20038;-94
2023/09/03 08:46:19;;;;;;;6.45;3.10;;;;;;;27.96;87.75;99298.34;4995730;28;20042;-95
2023/09/03 08:48:44;;;;;;;;;;;;;;;28.24;88.57;99312.22;4976189;28;20041;-96
2023/09/03 08:51:12;;;;;;;6.35;3.38;;;;;;;28.17;86.97;99270.91;5014614;28;19922;-94
2023/09/03 08:53:39;;;;;;;4.10;2.42;;;;;;;28.17;87.60;99250.88;4985220;28;20035;-95
2023/09/03 08:56:05;;;;;;;5.22;2.80;;;;;;;27.83;85.20;99273.94;5002444;28;20129;-95
2023/09/03 08:58:32;;;;;;;6.43;2.83;;;;;;;26.77;94.78;99307.84;4986969;28;20066;-93
2023/09/03 09:00:58;;;;;;;4.03;2.85;;;;;;;26.87;95.42;99316.13;4977998;28;20442;-94
2023/09/03 09:03:28;;;;;;;6.43;2.42;;;;;;;27.11;94.50;99291.28;4979471;28;20034;-94
2023/09/03 09:05:55;;;;;;;4.40;2.78;;;;;;;27.32;93.48;99320.44;4979524;28;20046;-94
2023/09/03 09:08:25;;;;;;;4.03;2.65;;;;;;;27.40;91.79;99307.84;4993899;28;20046;-94
2023/09/03 09:10:53;;;;;;;2.97;2.40;;;;;;;27.41;90.24;99314.16;4977778;28;20043;-94
2023/09/03 09:13:23;;;;;;;5.32;2.33;;;;;;;27.45;86.50;99315.63;4975235;28;20039;-94
2023/09/03 09:15:48;;;;;;;6.43;2.78;;;;;;;27.09;89.57;99295.13;4987729;28;20050;-92
2023/09/03 09:18:15;;;;;;;5.10;2.45;;;;;;;27.32;90.03;99294.00;4982955;28;20436;-95
2023/09/03 09:20:41;;;;;;;4.15;2.53;;;;;;;27.66;88.96;99305.53;4976675;28;21035;-93
2023/09/03 09:23:08;;;;;;;3.85;2.67;;;;;;;27.74;87.89;99332.19;4978528;28;20750;-93
2023/09/03 09:25:36;;;;;;;4.00;2.70;;;;;;;27.98;84.55;99311.88;4989270;28;20034;-94
2023/09/03 09:28:09;;;;;;;6.07;2.67;;;;;;;27.99;84.79;99316.31;4993731;28;20046;-93
2023/09/03 09:30:35;;;;;;;4.65;2.92;;;;;;;27.51;86.98;99303.31;4990112;28;20047;-94
2023/09/03 09:33:05;;;;;;;8.23;3.30;;;;;;;27.16;89.96;99301.78;4977013;28;20042;-94
2023/09/03 09:35:32;;;;;;;3.97;2.55;;;;;;;27.31;90.88;99280.50;4994161;28;20034;-94
2023/09/03 09:38:04;;;;;;;6.90;3.33;;;;;;;27.60;86.78;99286.94;4974567;28;20389;-91
2023/09/03 09:40:30;;;;;;;4.13;2.33;;;;;;;27.83;85.50;99273.09;4978895;28;20124;-94
2023/09/03 09:43:00;;;;;;;3.83;2.38;;;;;;;28.43;87.49;99290.38;4977636;28;20042;-94
2023/09/03 09:45:26;;;;;;;5.03;2.80;;;;;;;28.49;87.37;99242.44;4978614;28;20043;-95
2023/09/03 09:48:10;;;;;;;4.25;2.60;;;;;;;29.01;77.00;99289.47;4984246;28;20077;-92
2023/09/03 09:50:38;;;;;;;3.90;2.40;;;;;;;27.85;85.83;99276.59;4979978;28;20081;-93
2023/09/03 09:53:06;;;;;;;7.32;2.65;;;;;;;28.35;83.54;99286.63;4990608;28;20038;-92
2023/09/03 09:55:32;;;;;;;5.07;2.53;;;;;;;28.59;82.84;99267.06;4995610;28;20046;-95
2023/09/03 09:58:00;;;;;;;4.30;2.42;;;;;;;28.83;81.69;99248.31;4981785;28;20049;-93
2023/09/03 10:00:33;;;;;;;4.93;2.30;;;;;;;29.27;81.18;99276.06;4983662;28;20043;-93
2023/09/03 10:02:59;;;;;;;6.25;2.45;;;;;;;28.51;77.19;99291.53;4982910;28;20132;-92
2023/09/03 10:05:25;;;;;;;3.33;2.20;;;;;;;28.54;79.93;99280.31;4985952;28;20065;-95
2023/09/03 10:07:53;;;;;;;4.25;2.30;;;;;;;28.75;74.92;99280.16;4988449;28;20066;-96
2023/09/03 10:10:19;;;;;;;4.30;2.35;;;;;;;28.95;73.95;99268.19;4995264;28;20133;-95
2023/09/03 10:12:45;;;;;;;4.47;2.63;;;;;;;29.03;72.25;99275.66;4981560;28;20089;-95
2023/09/03 10:15:14;;;;;;;4.03;2.47;;;;;;;28.88;73.20;99267.03;4976548;28;20035;-93
2023/09/03 10:17:41;;;;;;;6.10;2.45;;;;;;;29.13;73.23;99257.38;4987431;28;20513;-96
2023/09/03 10:20:11;;;;;;;4.05;2.58;;;;;;;28.91;73.22;99263.13;4978543;28;20051;-95
2023/09/03 10:22:40;;;;;;;8.30;2.63;;;;;;;29.25;73.09;99261.63;4978188;28;20496;-96
2023/09/03 10:25:08;;;;;;;6.53;2.55;;;;;;;29.39;69.39;99259.47;4982513;28;20040;-95
2023/09/03 10:27:39;;;;;;;3.22;2.40;;;;;;;28.69;67.71;99256.97;4990458;28;20093;-94
2023/09/03 10:30:09;;;;;;;3.17;2.17;;;;;;;28.99;66.95;99275.06;4979264;28;20493;-96
2023/09/03 10:32:38;;;;;;;4.13;2.47;;;;;;;29.13;68.69;99294.84;4985266;28;20038;-95
2023/09/03 10:35:07;;;;;;;6.00;2.45;;;;;;;28.85;65.62;99276.41;4979306;28;20385;-95
2023/09/03 10:37:36;;;;;;;7.53;2.17;;;;;;;29.32;54.20;99294.81;4983065;28;20058;-93
2023/09/03 10:40:18;;;;;;;3.38;2.20;;;;;;;28.91;53.84;99290.50;4990093;28;20045;-94
2023/09/03 10:42:44;;;;;;;3.53;2.15;;;;;;;28.76;52.25;99236.22;4981047;28;20044;-94
2023/09/03 10:45:14;;;;;;;3.63;2.50;;;;;;;28.96;53.90;99260.84;4981166;28;20046;-93
2023/09/03 10:48:01;;;;;;;7.57;2.50;;;;;;;28.86;53.12;99239.81;4984786;28;20042;-94
2023/09/03 10:50:45;;;;;;;3.70;1.95;;;;;;;29.40;54.51;99242.84;4984910;28;20038;-95
2023/09/03 10:53:38;;;;;;;8.60;3.42;;;;;;;29.60;51.49;99243.66;4981064;28;20038;-93
2023/09/03 10:56:09;;;;;;;4.15;2.10;;;;;;;29.42;53.26;99239.97;4976889;28;20039;-93
2023/09/03 10:58:35;;;;;;;4.00;1.90;;;;;;;29.26;48.41;99243.34;4976398;28;20039;-92
2023/09/03 11:01:17;;;;;;;4.60;2.58;;;;;;;29.47;48.01;99235.78;4997926;28;20043;-94
2023/09/03 11:03:49;;;;;;;3.83;1.95;;;;;;;29.45;50.36;99234.16;4995518;28;20051;-95
2023/09/03 11:06:17;;;;;;;2.25;1.40;;;;;;;29.77;45.63;99221.94;4982280;28;20034;-94
2023/09/03 11:08:43;;;;;;;2.95;1.63;;;;;;;29.97;44.68;99237.28;4982834;28;20028;-94
2023/09/03 11:11:10;;;;;;;3.90;2.17;;;;;;;29.91;45.45;99237.88;4978062;28;20129;-93
2023/09/03 11:13:36;;;;;;;3.95;1.88;;;;;;;29.87;45.37;99207.16;4975500;28;20038;-93
2023/09/03 11:16:02;;;;;;;3.75;1.85;;;;;;;29.98;44.73;99214.31;4995668;28;20094;-94
2023/09/03 11:18:30;;;;;;;3.30;1.85;;;;;;;30.18;45.81;99216.91;4978523;28;20051;-93
2023/09/03 11:20:58;;;;;;;3.42;1.70;;;;;;;30.20;45.09;99212.97;4977612;28;20035;-94
2023/09/03 11:23:27;;;;;;;4.32;1.85;;;;;;;30.31;44.48;99214.66;4982396;28;20045;-93
2023/09/03 11:25:53;;;;;;;3.17;1.58;;;;;;;30.09;43.42;99186.66;4979746;28;20043;-93
2023/09/03 11:28:19;;;;;;;3.17;2.00;;;;;;;30.42;43.81;99225.38;4975983;28;20039;-93